Time;durP1;ratioP1;P1;durP2;ratioP2;P2;SDS_P1;SDS_P2;PMS_P1;PMS_P2;Temp;Humidity;BMP_temperature;BMP_pressure;BME280_temperature;BME280_humidity;BME280_pressure;Samples;Min_cycle;Max_cycle;Signal;HPM_P1;HPM_P2
2021/04/02 00:00:52;;;;;;;11.20;2.33;;;5.60;96.80;;;;;;5060904;28;20052;-87
2021/04/02 00:03:24;;;;;;;10.98;2.50;;;5.60;96.70;;;;;;5072351;28;20040;-81
2021/04/02 00:05:51;;;;;;;10.95;2.40;;;5.70;96.60;;;;;;5072269;28;20086;-81
2021/04/02 00:08:17;;;;;;;12.32;2.53;;;5.60;96.90;;;;;;5073578;28;20040;-81
2021/04/02 00:10:58;;;;;;;9.68;2.25;;;5.70;97.40;;;;;;5072194;28;20427;-81
2021/04/02 00:13:29;;;;;;;13.55;2.78;;;5.60;97.10;;;;;;5073186;28;20066;-81
2021/04/02 00:15:56;;;;;;;8.20;2.47;;;5.60;97.20;;;;;;5073192;28;20028;-80
2021/04/02 00:18:26;;;;;;;15.70;3.35;;;5.90;97.30;;;;;;5073206;28;20044;-81
2021/04/02 00:20:54;;;;;;;15.68;2.67;;;5.60;97.20;;;;;;5071902;28;20066;-87
2021/04/02 00:23:21;;;;;;;11.00;2.50;;;5.60;97.20;;;;;;5073534;28;20033;-87
2021/04/02 00:25:50;;;;;;;8.70;2.78;;;6.70;98.10;;;;;;5072511;28;20065;-86
2021/04/02 00:28:16;;;;;;;13.38;2.67;;;5.50;97.90;;;;;;5041553;28;20032;-81
2021/04/02 00:30:48;;;;;;;15.43;3.70;;;6.20;98.50;;;;;;5072912;28;20090;-81
2021/04/02 00:33:16;;;;;;;15.00;2.97;;;5.50;98.80;;;;;;5071670;28;20536;-81
2021/04/02 00:35:42;;;;;;;11.77;3.22;;;6.00;99.00;;;;;;5071728;28;20064;-81
2021/04/02 00:38:10;;;;;;;15.10;3.30;;;5.70;99.10;;;;;;5072723;28;20099;-81
2021/04/02 00:40:45;;;;;;;13.70;3.40;;;5.40;99.00;;;;;;5072645;28;20500;-73
2021/04/02 00:43:12;;;;;;;12.55;3.17;;;5.40;99.00;;;;;;5072613;28;20033;-73
2021/04/02 00:45:41;;;;;;;12.20;3.03;;;5.40;98.80;;;;;;5071655;28;20130;-73
2021/04/02 00:48:20;;;;;;;13.38;3.20;;;5.40;98.70;;;;;;5072457;28;20045;-73
2021/04/02 00:50:51;;;;;;;11.27;3.47;;;5.50;98.50;;;;;;5039621;28;20481;-73
2021/04/02 00:53:19;;;;;;;12.23;3.30;;;6.00;98.80;;;;;;5056026;28;20368;-73
2021/04/02 00:55:45;;;;;;;11.98;3.15;;;5.50;98.60;;;;;;5059196;28;20032;-73
2021/04/02 00:58:13;;;;;;;10.48;3.20;;;5.50;98.70;;;;;;5070778;28;20052;-74
2021/04/02 01:00:40;;;;;;;14.35;3.45;;;5.50;98.60;;;;;;5085814;28;20040;-74
2021/04/02 01:03:06;;;;;;;15.27;3.30;;;5.50;98.60;;;;;;5074590;28;20399;-74
2021/04/02 01:05:38;;;;;;;12.30;3.35;;;5.50;98.70;;;;;;5092619;28;20070;-74
2021/04/02 01:08:07;;;;;;;7.97;2.83;;;5.50;98.90;;;;;;5092366;28;20042;-74
2021/04/02 01:10:34;;;;;;;17.65;3.95;;;5.50;98.80;;;;;;5092793;28;20425;-74
2021/04/02 01:13:27;;;;;;;15.13;3.53;;;5.50;98.90;;;;;;5078256;28;20058;-74
2021/04/02 01:16:02;;;;;;;13.73;3.10;;;5.50;99.00;;;;;;5092347;28;20040;-74
2021/04/02 01:18:46;;;;;;;12.07;2.87;;;5.40;98.90;;;;;;5092439;28;20032;-74
2021/04/02 01:21:27;;;;;;;18.23;3.60;;;5.40;99.00;;;;;;5092272;28;20050;-74
2021/04/02 01:24:11;;;;;;;18.65;3.50;;;5.40;99.10;;;;;;5084692;28;20040;-74
2021/04/02 01:26:58;;;;;;;12.93;3.00;;;5.40;99.20;;;;;;5070404;28;20044;-74
2021/04/02 01:29:42;;;;;;;9.60;3.28;;;5.30;99.20;;;;;;5092480;28;20036;-74
2021/04/02 01:32:17;;;;;;;9.93;3.42;;;5.30;99.10;;;;;;5074269;28;20064;-74
2021/04/02 01:34:46;;;;;;;13.90;3.25;;;5.30;99.00;;;;;;5079516;28;20115;-74
2021/04/02 01:37:32;;;;;;;13.73;2.92;;;5.30;98.90;;;;;;5091439;28;20041;-74
2021/04/02 01:39:59;;;;;;;14.88;2.60;;;5.30;98.70;;;;;;5092281;28;20036;-74
2021/04/02 01:42:28;;;;;;;10.18;2.75;;;5.30;98.60;;;;;;5078294;28;20032;-74
2021/04/02 01:44:55;;;;;;;12.38;2.35;;;5.30;98.40;;;;;;5092302;28;20391;-74
2021/04/02 01:47:23;;;;;;;16.70;2.90;;;5.40;98.30;;;;;;5073981;28;20476;-74
2021/04/02 01:49:51;;;;;;;11.77;2.25;;;5.50;98.10;;;;;;5092340;28;20510;-74
2021/04/02 01:52:20;;;;;;;12.13;2.33;;;5.50;98.00;;;;;;5092173;28;20049;-74
2021/04/02 01:54:48;;;;;;;12.85;3.40;;;5.50;97.90;;;;;;5074249;28;20040;-74
2021/04/02 01:57:16;;;;;;;8.32;2.25;;;5.50;98.00;;;;;;5090748;28;20032;-74
2021/04/02 01:59:44;;;;;;;11.60;2.22;;;5.40;97.90;;;;;;5079185;28;20047;-74
2021/04/02 02:02:10;;;;;;;12.63;3.10;;;5.40;98.00;;;;;;5074059;28;20039;-74
2021/04/02 02:04:38;;;;;;;13.48;2.75;;;5.40;98.10;;;;;;5092123;28;20039;-74
2021/04/02 02:07:05;;;;;;;12.30;2.75;;;5.40;98.00;;;;;;5074094;28;20043;-74
2021/04/02 02:09:38;;;;;;;8.77;2.42;;;5.50;98.00;;;;;;5091911;28;20035;-74
2021/04/02 02:12:08;;;;;;;13.00;2.45;;;5.50;98.00;;;;;;5074024;28;20040;-74
2021/04/02 02:14:35;;;;;;;13.93;3.30;;;5.50;97.90;;;;;;5092011;28;20422;-73
2021/04/02 02:17:07;;;;;;;14.27;2.55;;;5.60;97.80;;;;;;5091952;28;20040;-74
2021/04/02 02:19:36;;;;;;;13.02;2.45;;;5.50;97.90;;;;;;5076668;28;20134;-74
2021/04/02 02:22:07;;;;;;;15.85;2.83;;;5.70;97.80;;;;;;5095716;28;20111;-74
2021/04/02 02:24:35;;;;;;;13.35;2.72;;;5.60;97.70;;;;;;5077401;28;20230;-74
2021/04/02 02:27:01;;;;;;;13.40;2.28;;;5.60;97.70;;;;;;5095594;28;20411;-74
2021/04/02 02:29:27;;;;;;;17.50;3.00;;;5.60;97.70;;;;;;5095355;28;20036;-74
2021/04/02 02:31:54;;;;;;;15.52;2.63;;;5.70;97.80;;;;;;5077397;28;20043;-74
2021/04/02 02:34:19;;;;;;;14.98;2.67;;;5.60;97.70;;;;;;5095441;28;20387;-74
2021/04/02 02:36:48;;;;;;;15.38;2.22;;;5.70;97.90;;;;;;5095215;28;20036;-74
2021/04/02 02:39:15;;;;;;;12.52;2.80;;;5.70;97.60;;;;;;5095303;28;20448;-74
2021/04/02 02:41:43;;;;;;;16.35;2.70;;;5.70;97.50;;;;;;5077296;28;20395;-73
2021/04/02 02:44:12;;;;;;;14.25;2.63;;;5.70;97.50;;;;;;5095365;28;20620;-73
2021/04/02 02:46:38;;;;;;;15.77;3.00;;;6.00;97.50;;;;;;5095171;28;20039;-74
2021/04/02 02:49:10;;;;;;;20.00;2.65;;;6.30;97.50;;;;;;5077207;28;20475;-74
2021/04/02 02:51:38;;;;;;;19.33;2.63;;;5.80;97.40;;;;;;5094970;28;20089;-74
2021/04/02 02:54:12;;;;;;;11.73;2.60;;;5.80;97.30;;;;;;5095080;28;20028;-74
2021/04/02 02:56:41;;;;;;;13.25;2.35;;;5.70;97.30;;;;;;5094826;28;20032;-74
2021/04/02 02:59:11;;;;;;;27.08;2.95;;;5.80;97.20;;;;;;5080488;28;20052;-74
2021/04/02 03:01:38;;;;;;;15.32;2.40;;;5.70;97.10;;;;;;5094949;28;20036;-74
2021/04/02 03:04:07;;;;;;;17.70;3.03;;;5.80;97.00;;;;;;5094823;28;20138;-74
2021/04/02 03:06:37;;;;;;;14.93;2.15;;;5.80;97.00;;;;;;5094737;28;20040;-74
2021/04/02 03:09:05;;;;;;;10.10;2.08;;;5.90;97.00;;;;;;5094651;28;20040;-74
2021/04/02 03:11:32;;;;;;;19.25;2.55;;;5.80;96.90;;;;;;5094585;28;20484;-73
2021/04/02 03:13:59;;;;;;;13.50;2.45;;;5.80;96.90;;;;;;5094722;28;20081;-73
2021/04/02 03:16:26;;;;;;;17.13;2.88;;;5.80;96.90;;;;;;5094657;28;20054;-74
2021/04/02 03:18:55;;;;;;;16.17;2.92;;;6.30;96.90;;;;;;5094460;28;20467;-73
2021/04/02 03:21:22;;;;;;;13.45;2.47;;;5.70;96.70;;;;;;5094324;28;20464;-74
2021/04/02 03:23:50;;;;;;;16.25;2.53;;;5.70;96.50;;;;;;5076388;28;20036;-73
2021/04/02 03:26:17;;;;;;;11.73;2.50;;;5.70;96.30;;;;;;5094274;28;20040;-73
2021/04/02 03:28:44;;;;;;;22.92;3.10;;;5.70;95.50;;;;;;5094368;28;20490;-74
2021/04/02 03:31:11;;;;;;;14.45;2.30;;;5.60;95.40;;;;;;5075100;28;20530;-73
2021/04/02 03:33:46;;;;;;;13.93;2.83;;;5.70;95.50;;;;;;5094198;28;20028;-73
2021/04/02 03:36:14;;;;;;;12.85;2.72;;;5.70;95.50;;;;;;5094096;28;20063;-73
2021/04/02 03:38:45;;;;;;;16.83;2.60;;;6.20;95.70;;;;;;5080032;28;20476;-73
2021/04/02 03:41:19;;;;;;;16.05;2.38;;;5.30;95.30;;;;;;5059289;28;20055;-73
2021/04/02 03:43:47;;;;;;;13.05;2.83;;;5.80;95.20;;;;;;5079843;28;20047;-73
2021/04/02 03:46:14;;;;;;;12.90;2.22;;;5.80;95.30;;;;;;5093949;28;20097;-73
2021/04/02 03:48:43;;;;;;;18.40;2.80;;;5.80;95.00;;;;;;5093873;28;20034;-73
2021/04/02 03:51:14;;;;;;;10.50;2.35;;;5.80;95.20;;;;;;5093969;28;20474;-74
2021/04/02 03:53:46;;;;;;;12.88;2.70;;;5.80;95.30;;;;;;5093797;28;20028;-73
2021/04/02 03:56:17;;;;;;;14.93;2.35;;;5.80;95.30;;;;;;5075789;28;20040;-74
2021/04/02 03:58:45;;;;;;;7.85;2.20;;;5.90;95.20;;;;;;5080067;28;20056;-74
2021/04/02 04:01:18;;;;;;;19.90;2.60;;;6.00;95.30;;;;;;5093448;28;20036;-73
2021/04/02 04:03:47;;;;;;;13.95;2.63;;;6.10;95.40;;;;;;5075640;28;20118;-74
2021/04/02 04:06:17;;;;;;;11.57;2.38;;;5.90;95.50;;;;;;5093561;28;20388;-73
2021/04/02 04:08:45;;;;;;;13.40;2.42;;;5.90;95.50;;;;;;5075762;28;20048;-73
2021/04/02 04:11:12;;;;;;;15.10;2.70;;;5.80;95.40;;;;;;5093324;28;20032;-73
2021/04/02 04:13:41;;;;;;;12.98;2.53;;;5.90;95.40;;;;;;5058955;28;20464;-73
2021/04/02 04:16:09;;;;;;;15.00;2.42;;;5.80;95.50;;;;;;5093399;28;20036;-73
2021/04/02 04:18:36;;;;;;;13.52;3.00;;;5.80;95.80;;;;;;5093578;28;20121;-73
2021/04/02 04:21:06;;;;;;;14.85;2.58;;;5.80;95.50;;;;;;5093302;28;20040;-73
2021/04/02 04:23:33;;;;;;;14.43;2.20;;;5.90;95.50;;;;;;5093377;28;20036;-74
2021/04/02 04:26:00;;;;;;;15.60;3.00;;;5.90;95.50;;;;;;5075374;28;20040;-73
2021/04/02 04:28:28;;;;;;;15.02;2.47;;;5.80;95.30;;;;;;5079069;28;20107;-73
2021/04/02 04:30:58;;;;;;;15.85;2.30;;;5.80;95.30;;;;;;5093357;28;20392;-74
2021/04/02 04:33:25;;;;;;;10.32;2.33;;;5.80;95.30;;;;;;5093107;28;20416;-73
2021/04/02 04:35:53;;;;;;;14.52;2.30;;;5.80;95.20;;;;;;5093177;28;20042;-74
2021/04/02 04:38:20;;;;;;;13.63;2.40;;;5.70;95.30;;;;;;5092792;28;20044;-74
2021/04/02 04:40:49;;;;;;;14.38;2.25;;;5.70;95.20;;;;;;5092790;28;20400;-74
2021/04/02 04:43:16;;;;;;;13.65;2.20;;;5.80;95.10;;;;;;5092939;28;20032;-74
2021/04/02 04:45:42;;;;;;;13.27;2.75;;;5.70;95.10;;;;;;5093158;28;20037;-73
2021/04/02 04:48:09;;;;;;;21.17;2.33;;;5.80;95.10;;;;;;5092863;28;20050;-74
2021/04/02 04:50:35;;;;;;;9.90;1.80;;;5.80;95.00;;;;;;5074841;28;20032;-74
2021/04/02 04:53:24;;;;;;;13.65;2.30;;;5.80;94.90;;;;;;5092918;28;20097;-74
2021/04/02 04:55:52;;;;;;;11.57;2.20;;;6.40;94.60;;;;;;5074759;28;20032;-74
2021/04/02 04:58:20;;;;;;;10.95;1.80;;;5.80;94.70;;;;;;5082585;28;20428;-74
2021/04/02 05:00:50;;;;;;;13.30;2.17;;;5.80;94.60;;;;;;5071081;28;20119;-74
2021/04/02 05:03:19;;;;;;;15.50;2.20;;;5.90;94.70;;;;;;5092746;28;20047;-73
2021/04/02 05:05:48;;;;;;;13.52;2.08;;;5.80;94.60;;;;;;5074523;28;20036;-73
2021/04/02 05:08:20;;;;;;;10.00;2.08;;;6.30;94.70;;;;;;5092796;28;20069;-73
2021/04/02 05:10:49;;;;;;;12.73;2.17;;;5.90;94.50;;;;;;5092420;28;20032;-73
2021/04/02 05:13:17;;;;;;;13.48;2.67;;;5.90;94.30;;;;;;5092537;28;20066;-73
2021/04/02 05:15:45;;;;;;;15.63;2.10;;;5.90;94.20;;;;;;5074540;28;20488;-73
2021/04/02 05:18:11;;;;;;;13.20;1.98;;;5.90;94.20;;;;;;5092246;28;20036;-73
2021/04/02 05:20:40;;;;;;;17.23;2.50;;;5.80;94.20;;;;;;5062882;28;20082;-74
2021/04/02 05:23:07;;;;;;;18.65;2.63;;;5.80;94.30;;;;;;5090426;28;20032;-73
2021/04/02 05:25:32;;;;;;;11.98;2.63;;;5.80;94.20;;;;;;5092592;28;20039;-74
2021/04/02 05:27:59;;;;;;;16.70;3.03;;;5.80;94.20;;;;;;5057500;28;20513;-73
2021/04/02 05:30:26;;;;;;;14.80;2.47;;;5.80;94.30;;;;;;5092517;28;20165;-74
2021/04/02 05:32:52;;;;;;;13.75;2.08;;;5.80;94.00;;;;;;5092296;28;20036;-73
2021/04/02 05:35:18;;;;;;;11.38;2.35;;;5.80;94.10;;;;;;5092383;28;20032;-73
2021/04/02 05:37:44;;;;;;;14.25;2.30;;;5.80;94.10;;;;;;5092303;28;20036;-73
2021/04/02 05:40:10;;;;;;;12.25;2.08;;;5.70;94.10;;;;;;5074095;28;20173;-73
2021/04/02 05:42:46;;;;;;;13.43;2.40;;;5.80;94.10;;;;;;5074378;28;20107;-74
2021/04/02 05:45:13;;;;;;;12.90;2.25;;;5.70;93.90;;;;;;5092167;28;20032;-73
2021/04/02 05:47:43;;;;;;;16.00;2.63;;;5.80;94.00;;;;;;5057971;28;20045;-74
2021/04/02 05:50:10;;;;;;;17.30;2.70;;;6.20;94.10;;;;;;5092256;28;20503;-73
2021/04/02 05:52:38;;;;;;;16.80;2.63;;;5.80;94.00;;;;;;5092364;28;20503;-73
2021/04/02 05:55:09;;;;;;;9.98;2.47;;;5.80;94.10;;;;;;5096101;28;20093;-73
2021/04/02 05:57:35;;;;;;;16.58;2.40;;;5.80;93.70;;;;;;5092208;28;20387;-74
2021/04/02 06:00:01;;;;;;;15.02;2.65;;;6.10;93.80;;;;;;5067938;28;20044;-73
2021/04/02 06:02:30;;;;;;;17.63;2.28;;;5.70;93.70;;;;;;5096035;28;20085;-74
2021/04/02 06:04:56;;;;;;;15.73;3.25;;;5.70;93.60;;;;;;5096204;28;20376;-74
2021/04/02 06:07:22;;;;;;;11.98;2.88;;;5.70;93.60;;;;;;5095927;28;20052;-73
2021/04/02 06:09:47;;;;;;;16.88;2.65;;;6.60;94.00;;;;;;5095915;28;20441;-73
2021/04/02 06:12:13;;;;;;;10.43;2.33;;;5.80;93.80;;;;;;5095994;28;20107;-73
2021/04/02 06:14:39;;;;;;;20.30;2.90;;;5.80;93.90;;;;;;5091257;28;20060;-74
2021/04/02 06:17:05;;;;;;;19.95;3.05;;;5.80;93.70;;;;;;5086232;28;20118;-73
2021/04/02 06:19:31;;;;;;;16.63;2.90;;;5.90;93.60;;;;;;5061087;28;20475;-74
2021/04/02 06:21:57;;;;;;;14.02;2.75;;;5.90;93.50;;;;;;5061125;28;20080;-73
2021/04/02 06:24:40;;;;;;;16.88;2.20;;;6.00;93.50;;;;;;5095534;28;20043;-73
2021/04/02 06:27:09;;;;;;;15.52;2.55;;;6.00;93.20;;;;;;5095766;28;20426;-73
2021/04/02 06:29:40;;;;;;;14.07;2.30;;;5.90;93.10;;;;;;5095538;28;20039;-73
2021/04/02 06:32:08;;;;;;;13.73;2.70;;;6.00;92.90;;;;;;5095631;28;20043;-74
2021/04/02 06:34:34;;;;;;;15.70;2.40;;;5.90;93.20;;;;;;5095386;28;20040;-73
2021/04/02 06:37:01;;;;;;;17.33;2.63;;;5.90;93.10;;;;;;5095359;28;20079;-73
2021/04/02 06:39:35;;;;;;;13.90;2.80;;;6.00;93.30;;;;;;5095774;28;20043;-74
2021/04/02 06:42:06;;;;;;;25.65;3.17;;;6.00;93.40;;;;;;5095508;28;20043;-74
2021/04/02 06:44:31;;;;;;;11.40;2.22;;;6.00;93.30;;;;;;5077579;28;20067;-74
2021/04/02 06:46:58;;;;;;;23.25;3.33;;;6.10;93.40;;;;;;5095206;28;20089;-73
2021/04/02 06:49:25;;;;;;;15.27;2.55;;;6.10;93.40;;;;;;5077435;28;20036;-73
2021/04/02 06:51:53;;;;;;;12.57;2.55;;;6.10;93.40;;;;;;5095110;28;20420;-74
2021/04/02 06:54:35;;;;;;;13.38;2.53;;;6.20;93.30;;;;;;5077561;28;20127;-73
2021/04/02 06:57:07;;;;;;;14.55;2.63;;;6.10;92.60;;;;;;5063829;28;20043;-74
2021/04/02 06:59:34;;;;;;;13.80;2.58;;;6.10;92.50;;;;;;5080966;28;20157;-74
2021/04/02 07:02:04;;;;;;;18.92;2.45;;;6.10;92.30;;;;;;5094871;28;20154;-74
2021/04/02 07:04:38;;;;;;;;;;;6.20;92.40;;;;;;5095054;28;20038;-74
2021/04/02 07:07:05;;;;;;;19.05;2.88;;;7.00;92.40;;;;;;5077017;28;19927;-74
2021/04/02 07:09:33;;;;;;;13.55;2.28;;;6.20;92.30;;;;;;5094827;28;20387;-74
2021/04/02 07:12:03;;;;;;;14.43;2.63;;;6.20;92.30;;;;;;5094777;28;20032;-74
2021/04/02 07:14:32;;;;;;;16.67;2.38;;;6.30;92.10;;;;;;5094677;28;20036;-74
2021/04/02 07:17:00;;;;;;;18.15;2.72;;;6.20;91.40;;;;;;5094737;28;20048;-74
2021/04/02 07:19:27;;;;;;;18.23;2.53;;;6.20;91.80;;;;;;5094588;28;20047;-74
2021/04/02 07:21:53;;;;;;;15.43;2.88;;;6.80;92.00;;;;;;5094542;28;20036;-74
2021/04/02 07:24:19;;;;;;;19.98;2.70;;;6.30;91.90;;;;;;5094541;28;20392;-75
2021/04/02 07:26:48;;;;;;;18.33;2.47;;;6.40;91.90;;;;;;5094554;28;20043;-74
2021/04/02 07:29:17;;;;;;;13.70;2.42;;;6.50;91.80;;;;;;5076874;28;20047;-74
2021/04/02 07:31:47;;;;;;;19.08;2.50;;;6.50;91.70;;;;;;5076801;28;20024;-74
2021/04/02 07:34:14;;;;;;;21.90;2.47;;;6.50;91.80;;;;;;5094414;28;20098;-74
2021/04/02 07:36:41;;;;;;;17.35;2.78;;;6.70;91.90;;;;;;5094252;28;20174;-74
2021/04/02 07:39:08;;;;;;;15.13;2.28;;;6.60;92.00;;;;;;5076374;28;20153;-74
2021/04/02 07:41:52;;;;;;;14.68;2.40;;;6.60;92.00;;;;;;5094652;28;20066;-74
2021/04/02 07:44:19;;;;;;;17.23;2.10;;;6.60;91.60;;;;;;5094230;28;20036;-75
2021/04/02 07:47:08;;;;;;;18.95;2.13;;;6.60;91.60;;;;;;5094130;28;20044;-74
2021/04/02 07:50:00;;;;;;;11.40;2.30;;;6.60;91.30;;;;;;5094049;28;20044;-74
2021/04/02 07:52:39;;;;;;;16.73;2.78;;;6.50;91.30;;;;;;5081678;28;20032;-74
2021/04/02 07:55:25;;;;;;;16.00;2.30;;;7.00;91.50;;;;;;5092647;28;20036;-73
2021/04/02 07:58:02;;;;;;;23.30;2.75;;;7.20;91.70;;;;;;5077374;28;20112;-73
2021/04/02 08:00:32;;;;;;;18.40;3.40;;;6.60;91.90;;;;;;5087353;28;20048;-72
2021/04/02 08:03:16;;;;;;;19.98;2.38;;;6.70;91.50;;;;;;5080010;28;20475;-74
2021/04/02 08:05:58;;;;;;;15.85;2.72;;;6.60;90.90;;;;;;5075721;28;20028;-72
2021/04/02 08:08:26;;;;;;;18.13;2.53;;;6.60;90.80;;;;;;5075602;28;20042;-72
2021/04/02 08:11:11;;;;;;;21.20;2.35;;;6.70;91.30;;;;;;5093690;28;20495;-72
2021/04/02 08:14:11;;;;;;;20.98;3.40;;;6.70;91.20;;;;;;5093654;28;20039;-73
2021/04/02 08:16:39;;;;;;;16.52;2.70;;;6.70;91.40;;;;;;5039105;28;20400;-73
2021/04/02 08:19:07;;;;;;;15.75;2.20;;;7.00;91.50;;;;;;5075639;28;20541;-74
2021/04/02 08:21:34;;;;;;;18.85;2.40;;;7.00;91.70;;;;;;5088428;28;20036;-73
2021/04/02 08:24:08;;;;;;;14.27;3.15;;;6.80;91.60;;;;;;5086979;28;20040;-73
2021/04/02 08:26:35;;;;;;;17.42;2.55;;;6.90;91.50;;;;;;5093245;28;20089;-73
2021/04/02 08:29:03;;;;;;;14.68;2.20;;;7.10;91.40;;;;;;5093426;28;20039;-73
2021/04/02 08:31:30;;;;;;;15.38;2.22;;;7.00;91.40;;;;;;5093033;28;20028;-73
2021/04/02 08:33:56;;;;;;;21.23;2.72;;;7.00;91.30;;;;;;5093138;28;20028;-74
2021/04/02 08:36:23;;;;;;;20.63;2.53;;;7.00;91.10;;;;;;5075001;28;20060;-74
2021/04/02 08:38:50;;;;;;;17.00;1.83;;;7.10;91.00;;;;;;5093129;28;20040;-74
2021/04/02 08:41:31;;;;;;;14.55;2.47;;;7.10;91.00;;;;;;5058592;28;20542;-73
2021/04/02 08:43:58;;;;;;;15.98;2.50;;;7.10;91.00;;;;;;5093224;28;20042;-73
2021/04/02 08:46:38;;;;;;;15.60;2.75;;;7.20;91.10;;;;;;5093048;28;20616;-73
2021/04/02 08:49:05;;;;;;;18.70;2.30;;;7.10;91.10;;;;;;5080892;28;20054;-74
2021/04/02 08:51:33;;;;;;;17.15;2.92;;;7.10;91.40;;;;;;5093951;28;20061;-73
2021/04/02 08:53:59;;;;;;;10.60;2.20;;;7.10;91.50;;;;;;5094142;28;20036;-73
2021/04/02 08:56:31;;;;;;;15.60;2.30;;;7.20;91.60;;;;;;5075575;28;20047;-73
2021/04/02 08:58:59;;;;;;;16.65;2.28;;;7.20;91.80;;;;;;5061540;28;20136;-73
2021/04/02 09:01:25;;;;;;;8.48;1.95;;;7.00;92.10;;;;;;5075440;28;20039;-72
2021/04/02 09:03:54;;;;;;;13.98;2.10;;;7.00;92.20;;;;;;5058530;28;20047;-73
2021/04/02 09:06:20;;;;;;;11.02;2.53;;;7.10;92.40;;;;;;5092924;28;20033;-74
2021/04/02 09:08:45;;;;;;;18.17;2.78;;;7.10;92.40;;;;;;5093101;28;20468;-73
2021/04/02 09:11:13;;;;;;;16.70;2.30;;;7.20;92.60;;;;;;5074551;28;20043;-74
2021/04/02 09:13:44;;;;;;;15.98;2.30;;;7.40;92.60;;;;;;5092570;28;20490;-73
2021/04/02 09:16:13;;;;;;;20.52;2.42;;;7.30;92.70;;;;;;5074649;28;20032;-73
2021/04/02 09:18:49;;;;;;;15.90;2.60;;;7.20;92.80;;;;;;5074531;28;20088;-73
2021/04/02 09:21:16;;;;;;;16.13;2.67;;;7.10;92.90;;;;;;5074785;28;20051;-74
2021/04/02 09:23:42;;;;;;;15.30;3.22;;;7.10;93.10;;;;;;5092943;28;20060;-73
2021/04/02 09:26:10;;;;;;;15.82;2.45;;;7.00;92.90;;;;;;5092535;28;20063;-74
2021/04/02 09:28:37;;;;;;;16.80;2.63;;;7.00;92.90;;;;;;5095869;28;20057;-74
2021/04/02 09:31:16;;;;;;;21.70;3.15;;;7.10;92.80;;;;;;5096874;28;20161;-74
2021/04/02 09:33:43;;;;;;;17.42;2.83;;;7.10;92.70;;;;;;5083861;28;20384;-73
2021/04/02 09:36:10;;;;;;;13.70;2.22;;;7.20;92.60;;;;;;5096646;28;20044;-74
2021/04/02 09:38:38;;;;;;;14.40;2.40;;;7.20;92.50;;;;;;5078588;28;20039;-73
2021/04/02 09:41:04;;;;;;;16.85;2.25;;;7.30;92.40;;;;;;5096502;28;20039;-72
2021/04/02 09:43:48;;;;;;;18.23;2.80;;;7.20;92.40;;;;;;5078213;28;20049;-73
2021/04/02 09:46:41;;;;;;;19.63;3.03;;;7.10;92.40;;;;;;5096594;28;20484;-73
2021/04/02 09:49:10;;;;;;;19.50;3.17;;;7.00;92.60;;;;;;5096321;28;20486;-73
2021/04/02 09:51:39;;;;;;;13.25;2.58;;;6.90;93.40;;;;;;5096277;28;20070;-73
2021/04/02 09:54:05;;;;;;;16.10;2.67;;;6.90;93.90;;;;;;5096455;28;20036;-73
2021/04/02 09:56:31;;;;;;;14.38;2.67;;;6.80;94.20;;;;;;5078188;28;20042;-73
2021/04/02 09:58:58;;;;;;;17.75;2.70;;;6.80;94.10;;;;;;5081587;28;20045;-73
2021/04/02 10:01:24;;;;;;;12.23;2.65;;;6.80;93.80;;;;;;5078484;28;20127;-74
2021/04/02 10:03:51;;;;;;;11.57;2.42;;;6.80;93.40;;;;;;5096126;28;20532;-73
2021/04/02 10:06:20;;;;;;;15.95;2.55;;;6.90;93.20;;;;;;5064193;28;20111;-73
2021/04/02 10:08:45;;;;;;;17.05;2.70;;;7.00;93.10;;;;;;5077892;28;20111;-73
2021/04/02 10:11:11;;;;;;;15.57;2.85;;;7.10;92.90;;;;;;5061368;28;20043;-73
2021/04/02 10:13:38;;;;;;;20.88;2.72;;;7.20;92.90;;;;;;5095666;28;20051;-73
2021/04/02 10:16:05;;;;;;;19.30;2.88;;;7.20;92.80;;;;;;5095573;28;20480;-72
2021/04/02 10:18:31;;;;;;;14.70;2.38;;;7.20;92.40;;;;;;5077694;28;20044;-73
2021/04/02 10:21:00;;;;;;;16.90;2.30;;;7.20;92.30;;;;;;5096042;28;20093;-73
2021/04/02 10:23:26;;;;;;;12.77;2.08;;;7.30;92.30;;;;;;5095725;28;20032;-73
2021/04/02 10:25:51;;;;;;;13.80;2.35;;;7.50;92.20;;;;;;5077564;28;20047;-73
2021/04/02 10:28:17;;;;;;;12.07;2.53;;;7.20;92.20;;;;;;5060881;28;20031;-73
2021/04/02 10:30:43;;;;;;;18.25;3.10;;;7.30;92.00;;;;;;5095604;28;20111;-73
2021/04/02 10:33:09;;;;;;;11.43;2.10;;;7.30;91.80;;;;;;5077375;28;20060;-73
2021/04/02 10:35:41;;;;;;;11.77;2.05;;;7.70;91.20;;;;;;5095441;28;20067;-73
2021/04/02 10:38:07;;;;;;;11.50;1.90;;;7.40;90.80;;;;;;5093666;28;20097;-73
2021/04/02 10:40:33;;;;;;;12.15;2.55;;;7.50;90.80;;;;;;5064073;28;20040;-73
2021/04/02 10:43:00;;;;;;;14.85;2.40;;;7.50;90.50;;;;;;5077269;28;20048;-73
2021/04/02 10:45:26;;;;;;;8.45;2.15;;;7.50;90.90;;;;;;5095341;28;20024;-73
2021/04/02 10:47:52;;;;;;;12.23;2.42;;;7.50;91.00;;;;;;5095287;28;20044;-74
2021/04/02 10:50:19;;;;;;;10.77;2.28;;;7.50;91.10;;;;;;5095114;28;20055;-74
2021/04/02 10:52:46;;;;;;;12.18;2.17;;;8.50;91.60;;;;;;5077500;28;20553;-73
2021/04/02 10:55:16;;;;;;;9.60;2.08;;;7.50;91.10;;;;;;5081233;28;20029;-74
2021/04/02 10:57:55;;;;;;;13.25;2.47;;;7.50;91.20;;;;;;5088315;28;20099;-73
2021/04/02 11:00:22;;;;;;;17.35;3.10;;;7.50;91.30;;;;;;5069735;28;20048;-73
2021/04/02 11:02:52;;;;;;;12.32;3.40;;;7.40;91.50;;;;;;5094870;28;20075;-74
2021/04/02 11:05:18;;;;;;;10.82;3.28;;;7.40;91.50;;;;;;5077060;28;20044;-73
2021/04/02 11:07:44;;;;;;;17.58;3.55;;;7.40;91.70;;;;;;5094830;28;20090;-73
2021/04/02 11:10:12;;;;;;;14.38;3.20;;;7.70;91.40;;;;;;5076831;28;20649;-73
2021/04/02 11:12:39;;;;;;;17.13;2.83;;;7.40;91.40;;;;;;5076731;28;20307;-73
2021/04/02 11:15:12;;;;;;;11.35;2.33;;;7.40;91.50;;;;;;5060899;28;20424;-73
2021/04/02 11:17:41;;;;;;;18.10;2.50;;;7.40;91.30;;;;;;5094546;28;20044;-73
2021/04/02 11:20:10;;;;;;;13.32;2.45;;;7.40;90.90;;;;;;5059962;28;20130;-73
2021/04/02 11:22:39;;;;;;;14.45;2.70;;;7.30;90.90;;;;;;5094538;28;20115;-73
2021/04/02 11:25:09;;;;;;;16.02;2.75;;;7.90;91.00;;;;;;5094835;28;20044;-72
2021/04/02 11:27:35;;;;;;;15.90;2.22;;;7.40;91.00;;;;;;5094574;28;20040;-74
2021/04/02 11:30:02;;;;;;;22.52;2.50;;;7.40;91.00;;;;;;5076282;28;20059;-75
2021/04/02 11:32:28;;;;;;;17.30;2.30;;;8.00;91.10;;;;;;5094562;28;20060;-74
2021/04/02 11:34:53;;;;;;;13.48;2.40;;;7.50;90.70;;;;;;5094185;28;20028;-74
2021/04/02 11:37:20;;;;;;;8.63;2.33;;;7.70;90.30;;;;;;5076173;28;20036;-74
2021/04/02 11:39:46;;;;;;;16.10;2.58;;;7.60;90.30;;;;;;5094208;28;20107;-74
2021/04/02 11:42:12;;;;;;;16.90;2.50;;;7.70;90.30;;;;;;5094316;28;20111;-74
2021/04/02 11:44:38;;;;;;;16.65;3.00;;;7.60;89.80;;;;;;5076256;28;20165;-75
2021/04/02 11:47:04;;;;;;;19.10;2.78;;;7.70;90.10;;;;;;5076077;28;20119;-74
2021/04/02 11:49:30;;;;;;;19.92;3.10;;;7.80;90.00;;;;;;5094212;28;20123;-74
2021/04/02 11:51:56;;;;;;;14.77;2.35;;;7.80;88.90;;;;;;5093026;28;20650;-75
2021/04/02 11:54:26;;;;;;;12.60;2.20;;;7.80;88.30;;;;;;5076100;28;20480;-74
2021/04/02 11:56:52;;;;;;;13.52;2.35;;;7.90;88.10;;;;;;5093746;28;20040;-74
2021/04/02 11:59:18;;;;;;;11.73;1.92;;;8.00;87.90;;;;;;5061613;28;20075;-74
2021/04/02 12:01:44;;;;;;;13.30;1.85;;;8.10;87.50;;;;;;5075864;28;20063;-75
2021/04/02 12:04:10;;;;;;;8.77;1.70;;;8.10;86.30;;;;;;5093698;28;20495;-75
2021/04/02 12:06:40;;;;;;;9.45;1.80;;;8.40;85.40;;;;;;5093762;28;20028;-75
2021/04/02 12:09:06;;;;;;;7.13;1.65;;;8.20;83.80;;;;;;5079287;28;20036;-75
2021/04/02 12:11:33;;;;;;;13.75;2.35;;;8.20;84.40;;;;;;5093918;28;20027;-75
2021/04/02 12:13:59;;;;;;;12.25;1.85;;;8.40;84.80;;;;;;5093631;28;20093;-74
2021/04/02 12:16:25;;;;;;;9.40;1.65;;;8.40;84.30;;;;;;5075310;28;20028;-74
2021/04/02 12:18:51;;;;;;;6.63;2.10;;;8.40;83.30;;;;;;5075782;28;20055;-75
2021/04/02 12:21:17;;;;;;;8.77;2.00;;;8.60;84.00;;;;;;5075577;28;20055;-75
2021/04/02 12:23:43;;;;;;;9.05;1.75;;;8.50;84.40;;;;;;5093537;28;20074;-74
2021/04/02 12:26:09;;;;;;;8.02;1.40;;;8.40;83.60;;;;;;5093365;28;20044;-74
2021/04/02 12:28:37;;;;;;;8.30;1.73;;;8.70;84.10;;;;;;5075460;28;20506;-74
2021/04/02 12:31:14;;;;;;;8.25;1.55;;;8.30;84.30;;;;;;5059179;28;20455;-74
2021/04/02 12:33:41;;;;;;;10.88;1.58;;;8.30;83.40;;;;;;5076083;28;20064;-74
2021/04/02 12:36:08;;;;;;;10.57;1.92;;;8.40;84.70;;;;;;5075210;28;20511;-73
2021/04/02 12:38:35;;;;;;;11.38;1.65;;;8.50;84.10;;;;;;5075144;28;20036;-72
2021/04/02 12:41:01;;;;;;;9.82;2.08;;;8.50;83.90;;;;;;5093479;28;20033;-72
2021/04/02 12:43:27;;;;;;;12.07;2.13;;;8.60;84.20;;;;;;5074948;28;20392;-73
2021/04/02 12:45:53;;;;;;;7.82;1.70;;;8.50;83.60;;;;;;5093166;28;20039;-72
2021/04/02 12:48:20;;;;;;;13.75;2.15;;;8.60;84.00;;;;;;5093028;28;20036;-72
2021/04/02 12:50:47;;;;;;;9.32;1.90;;;8.70;84.00;;;;;;5093155;28;20119;-72
2021/04/02 12:53:12;;;;;;;7.75;1.85;;;8.90;83.80;;;;;;5093262;28;20032;-72
2021/04/02 12:55:41;;;;;;;11.40;1.55;;;8.70;84.00;;;;;;5078845;28;20040;-73
2021/04/02 12:58:07;;;;;;;10.88;1.95;;;9.40;83.60;;;;;;5066937;28;20484;-72